Accueil
METAR-TAF:

METAR-TAF

Aéroports :

Aéroport international d'Exeter

Exeter, Angleterre

latitude: 50-44N, longitude: 003-25W, altitude: 30 m

Observation

Le bulletin a été fait il y a 2 heures et 12 minutes, à 00:50 UTC
Vent 1 kt de direction variable
Température 10°C
Humidité 93%
Pression 1018 hPa
Visibilité 10 km ou plus
pas de nuages en-dessous de 1500 mètres et pas de cumulonimbus.

METAR: EGTE 170050Z VRB01KT CAVOK 10/09 Q1018

Heure: 04:02 (03:02 UTC)

Prévision

Le bulletin a été fait il y a 4 heures et 3 minutes, à 22:59 UTC
Prévision valable du 17 à 00 UTC au 17 à 03 UTC
Vent 5 kt de sud-ouest
Visibilité 10 km ou plus
Quelques nuages à une hauteur de 3500 ft

TAF: EGTE 162259Z 1700/1703 23005KT 9999 FEW035

Observations et prévisions météorologiques de plus de 4000 aéroports (messages METAR et TAF).

Les stations disponibles sont représentées par des disques jaunes et rouges sur la carte.

Passer la souris dessus pour voir le nom de la station.

Cliquer dessus pour voir les observations et prévisions météorologiques.

Pour changer de carte: cliquez sur les boutons verts avec une croix noire pour zoomer, sur le bouton vert avec un tiret pour effectuer un zoom arrière, ou sur les flèches vertes pour les cartes adjacentes.


METAR-TAF: